Ana Sayfa
METAR-TAF:

METAR-TAF

Havaalanları :

Port Heiden, Alaska, Amerika Birleşik Devletleri

Enlem: 56-57N, Boylam: 158-38W, yükseklik: 29 m

Güncel hava durumu gözlemi

Rapor saat 12:56 UTC de 21 dakika önce yapıldı.
Rüzgar kuzeybatıdan 19 kt ve 23 kt'a kadar ani rüzgarlar
Sıcaklık -5°C
Nem 79%
Basınç 1018 hPa
Görüş mesafesi: 14.5 km
2100 ft yükseklikte parçalı bulutlu
hafif kar

METAR: PAPH 131256Z AUTO 31019G23KT 9SM -SN SCT021 M05/M08 A3005 RMK AO2 SLPNO P0000 T10501083 FZRANO $

Saat: 05:17 (13:17 UTC)


TAF: eksik

4.000'den fazla havaalanı için hava durumu gözlemleri ve tahminleri (METAR ve TAF raporları).

Kullanılabilir istasyonlar harita üzerinde sarı ve kırmızı noktalarla gösterilir.

İstasyonun adını görmek için fareyi noktanın üzerinde gezdirin.

Sonrasında hava gözlem ve tahminlerini görmek için tıklayın.

Haritayı değiştirmek için: yaklaştırmak için siyah artı işaretli yeşil düğmeye ve uzaklaştırmak için de eksi işaretli düğmeye hızla tıklayın; bitişik haritalar için yeşil okları kullanın.


METAR-TAF: